Time;durP1;ratioP1;P1;durP2;ratioP2;P2;SDS_P1;SDS_P2;PMS_P1;PMS_P2;Temp;Humidity;BMP_temperature;BMP_pressure;BME280_temperature;BME280_humidity;BME280_pressure;Samples;Min_cycle;Max_cycle;Signal;HPM_P1;HPM_P2
2021/04/22 00:00:25;;;;;;;19.58;6.75;;;5.30;75.10;;;;;;5031607;28;20509;-38
2021/04/22 00:02:52;;;;;;;19.17;6.18;;;5.40;74.90;;;;;;5034268;28;20049;-38
2021/04/22 00:05:29;;;;;;;21.90;5.97;;;5.40;74.20;;;;;;5034223;28;20409;-38
2021/04/22 00:07:56;;;;;;;17.25;6.03;;;5.40;74.50;;;;;;5037173;28;20136;-38
2021/04/22 00:10:27;;;;;;;19.10;5.97;;;5.40;74.50;;;;;;5033933;28;20057;-39
2021/04/22 00:12:53;;;;;;;19.27;7.00;;;5.30;74.40;;;;;;5038091;28;20060;-38
2021/04/22 00:15:20;;;;;;;19.30;6.55;;;5.30;75.00;;;;;;5030535;28;20053;-39
2021/04/22 00:17:49;;;;;;;13.32;5.93;;;5.20;75.30;;;;;;5035147;28;20063;-38
2021/04/22 00:20:16;;;;;;;19.10;6.72;;;5.00;75.80;;;;;;5030204;28;20084;-38
2021/04/22 00:22:47;;;;;;;22.83;7.10;;;5.00;76.20;;;;;;5036312;28;20053;-38
2021/04/22 00:25:14;;;;;;;19.70;6.38;;;5.00;76.60;;;;;;5036600;28;20057;-39
2021/04/22 00:27:40;;;;;;;16.58;6.05;;;5.00;77.70;;;;;;5025858;28;20975;-39
2021/04/22 00:30:10;;;;;;;15.35;6.25;;;5.10;76.90;;;;;;5042453;28;20045;-40
2021/04/22 00:32:37;;;;;;;25.60;6.43;;;5.10;77.20;;;;;;5042612;28;20098;-39
2021/04/22 00:35:06;;;;;;;18.17;5.80;;;5.20;76.70;;;;;;5039480;28;20497;-39
2021/04/22 00:37:35;;;;;;;15.88;5.95;;;5.30;76.60;;;;;;5031399;28;20049;-39
2021/04/22 00:40:19;;;;;;;17.80;6.60;;;5.30;76.50;;;;;;5034992;28;20171;-38
2021/04/22 00:42:48;;;;;;;14.68;6.53;;;5.30;76.80;;;;;;5032589;28;20561;-41
2021/04/22 00:45:16;;;;;;;16.27;6.15;;;5.40;76.40;;;;;;5037145;28;20049;-39
2021/04/22 00:47:42;;;;;;;17.92;6.63;;;5.40;76.30;;;;;;5032673;28;20126;-39
2021/04/22 00:50:28;;;;;;;17.48;6.30;;;5.40;76.10;;;;;;5018413;28;20049;-39
2021/04/22 00:52:56;;;;;;;20.27;6.68;;;5.30;76.20;;;;;;5038983;28;20159;-40
2021/04/22 00:55:25;;;;;;;23.00;6.05;;;5.20;76.40;;;;;;5019378;28;20519;-41
2021/04/22 00:57:52;;;;;;;17.02;5.32;;;5.20;76.90;;;;;;5032610;28;20122;-39
2021/04/22 01:00:21;;;;;;;19.83;6.10;;;5.20;77.30;;;;;;5031314;28;20057;-38
2021/04/22 01:02:50;;;;;;;19.45;6.07;;;5.20;77.90;;;;;;5040443;28;20095;-38
2021/04/22 01:05:24;;;;;;;19.52;5.35;;;5.30;77.70;;;;;;5031856;28;20049;-39
2021/04/22 01:07:51;;;;;;;18.65;5.70;;;5.30;77.70;;;;;;5030205;28;20139;-38
2021/04/22 01:10:19;;;;;;;17.85;5.05;;;5.30;78.00;;;;;;5038215;28;20085;-38
2021/04/22 01:12:46;;;;;;;20.88;6.60;;;5.40;77.80;;;;;;5032461;28;20049;-39
2021/04/22 01:15:25;;;;;;;19.30;5.63;;;5.40;77.50;;;;;;5030728;28;20056;-38
2021/04/22 01:17:51;;;;;;;17.63;5.65;;;5.50;77.50;;;;;;5036650;28;20060;-39
2021/04/22 01:20:24;;;;;;;18.10;5.28;;;5.50;77.80;;;;;;5036148;28;20050;-40
2021/04/22 01:22:51;;;;;;;22.55;5.68;;;5.50;77.40;;;;;;5038386;28;20038;-40
2021/04/22 01:25:25;;;;;;;19.95;5.53;;;5.50;77.50;;;;;;5041591;28;20049;-38
2021/04/22 01:27:52;;;;;;;16.40;5.88;;;5.50;77.30;;;;;;5031973;28;20520;-38
2021/04/22 01:30:25;;;;;;;17.92;5.03;;;5.50;77.30;;;;;;5031017;28;20055;-38
2021/04/22 01:32:51;;;;;;;19.75;6.03;;;5.50;77.60;;;;;;5030009;28;20520;-38
2021/04/22 01:35:21;;;;;;;22.10;5.63;;;5.50;77.40;;;;;;5027282;28;20049;-38
2021/04/22 01:37:48;;;;;;;14.50;5.43;;;5.50;77.70;;;;;;5031977;28;20317;-39
2021/04/22 01:40:16;;;;;;;16.70;5.80;;;5.50;77.60;;;;;;5032558;28;20102;-38
2021/04/22 01:42:42;;;;;;;20.02;5.57;;;5.50;77.70;;;;;;5038282;28;20060;-39
2021/04/22 01:45:11;;;;;;;13.73;5.22;;;5.50;77.80;;;;;;5032089;28;20056;-38
2021/04/22 01:47:38;;;;;;;14.55;5.25;;;5.50;77.80;;;;;;5031535;28;20498;-38
2021/04/22 01:50:07;;;;;;;15.55;4.30;;;5.50;77.20;;;;;;5028900;28;20148;-38
2021/04/22 01:52:34;;;;;;;14.38;4.65;;;5.50;77.30;;;;;;5036156;28;20161;-38
2021/04/22 01:55:00;;;;;;;18.00;4.57;;;5.50;77.20;;;;;;5029488;28;20052;-39
2021/04/22 01:57:26;;;;;;;16.02;4.07;;;5.50;76.90;;;;;;5031555;28;20041;-38
2021/04/22 01:59:53;;;;;;;17.00;5.47;;;5.50;76.10;;;;;;5029976;28;20406;-38
2021/04/22 02:02:21;;;;;;;18.52;4.78;;;5.60;76.20;;;;;;5039207;28;20519;-39
2021/04/22 02:04:52;;;;;;;18.67;4.72;;;5.60;75.80;;;;;;5035320;28;20068;-38
2021/04/22 02:07:18;;;;;;;11.85;4.45;;;5.60;75.80;;;;;;5037894;28;20053;-40
2021/04/22 02:09:45;;;;;;;15.13;4.68;;;5.50;76.10;;;;;;5035137;28;20045;-39
2021/04/22 02:12:15;;;;;;;14.80;4.28;;;5.60;76.40;;;;;;5037799;28;20152;-38
2021/04/22 02:14:46;;;;;;;16.30;5.07;;;5.50;76.40;;;;;;5031823;28;20053;-38
2021/04/22 02:17:12;;;;;;;13.75;4.43;;;5.60;76.10;;;;;;5045206;28;20103;-38
2021/04/22 02:19:38;;;;;;;15.48;4.07;;;5.60;76.20;;;;;;5043914;28;20052;-38
2021/04/22 02:22:06;;;;;;;17.35;4.40;;;5.60;76.20;;;;;;5038834;28;20083;-41
2021/04/22 02:24:34;;;;;;;19.50;5.18;;;5.60;76.20;;;;;;5042827;28;20099;-38
2021/04/22 02:27:01;;;;;;;14.15;4.38;;;5.60;76.50;;;;;;5034070;28;20077;-38
2021/04/22 02:29:27;;;;;;;15.50;4.13;;;5.60;76.10;;;;;;5043555;28;20049;-38
2021/04/22 02:31:53;;;;;;;15.10;3.38;;;5.60;75.90;;;;;;5038265;28;20052;-38
2021/04/22 02:34:20;;;;;;;15.57;3.53;;;5.60;75.30;;;;;;5030042;28;20066;-38
2021/04/22 02:36:46;;;;;;;18.10;4.47;;;5.60;74.90;;;;;;5033758;28;20053;-38
2021/04/22 02:39:12;;;;;;;17.10;3.67;;;5.60;74.10;;;;;;5029757;28;20069;-39
2021/04/22 02:41:41;;;;;;;13.07;3.10;;;5.70;73.10;;;;;;5035144;28;20064;-40
2021/04/22 02:44:07;;;;;;;11.25;4.15;;;5.60;72.70;;;;;;5023622;28;20097;-39
2021/04/22 02:46:35;;;;;;;12.45;3.25;;;5.70;72.20;;;;;;5043776;28;20511;-37
2021/04/22 02:49:01;;;;;;;15.65;3.15;;;5.70;72.10;;;;;;5032919;28;20049;-39
2021/04/22 02:51:28;;;;;;;15.82;3.75;;;5.70;72.30;;;;;;5041941;28;20096;-39
2021/04/22 02:53:54;;;;;;;18.35;4.75;;;5.70;72.70;;;;;;5048419;28;20045;-40
2021/04/22 02:56:22;;;;;;;22.17;3.70;;;5.70;73.20;;;;;;5030913;28;20049;-38
2021/04/22 02:58:48;;;;;;;18.20;3.25;;;5.70;73.70;;;;;;5036174;28;20048;-38
2021/04/22 03:01:15;;;;;;;15.98;3.58;;;5.60;73.90;;;;;;5039323;28;20057;-39
2021/04/22 03:03:41;;;;;;;19.67;4.53;;;5.70;74.10;;;;;;5027949;28;20049;-39
2021/04/22 03:06:07;;;;;;;13.95;3.05;;;5.60;74.10;;;;;;5043231;28;20567;-39
2021/04/22 03:08:36;;;;;;;16.95;4.28;;;5.60;74.50;;;;;;5035287;28;20111;-40
2021/04/22 03:11:02;;;;;;;11.43;3.30;;;5.60;74.70;;;;;;5030695;28;20405;-39
2021/04/22 03:13:29;;;;;;;17.80;3.90;;;5.60;74.90;;;;;;5039435;28;20098;-39
2021/04/22 03:15:57;;;;;;;17.23;4.32;;;5.60;75.20;;;;;;5048805;28;20087;-40
2021/04/22 03:18:23;;;;;;;14.52;3.67;;;5.70;74.70;;;;;;5030303;28;20449;-38
2021/04/22 03:20:50;;;;;;;18.38;3.60;;;5.70;74.60;;;;;;5037404;28;20485;-39
2021/04/22 03:23:16;;;;;;;22.83;4.85;;;5.70;74.40;;;;;;5031369;28;20057;-38
2021/04/22 03:25:42;;;;;;;12.48;3.75;;;5.70;74.80;;;;;;5038585;28;20128;-38
2021/04/22 03:28:08;;;;;;;12.70;3.05;;;5.70;74.30;;;;;;5036757;28;20784;-39
2021/04/22 03:30:35;;;;;;;13.77;3.92;;;5.70;74.70;;;;;;5031283;28;20058;-39
2021/04/22 03:33:02;;;;;;;15.32;3.95;;;5.70;74.40;;;;;;5037428;28;20195;-39
2021/04/22 03:35:29;;;;;;;13.98;3.65;;;5.70;74.70;;;;;;5038115;28;20771;-38
2021/04/22 03:37:56;;;;;;;17.33;3.45;;;5.70;75.00;;;;;;5040338;28;20048;-39
2021/04/22 03:40:24;;;;;;;15.38;3.55;;;5.70;75.50;;;;;;5040501;28;20054;-38
2021/04/22 03:42:51;;;;;;;13.15;3.55;;;5.70;75.10;;;;;;5036240;28;20045;-38
2021/04/22 03:45:18;;;;;;;17.20;3.47;;;5.70;75.20;;;;;;5032104;28;20098;-39
2021/04/22 03:47:44;;;;;;;13.65;3.50;;;5.70;75.60;;;;;;5036316;28;20140;-40
2021/04/22 03:50:13;;;;;;;13.75;3.38;;;5.70;75.50;;;;;;5030568;28;20052;-38
2021/04/22 03:52:40;;;;;;;14.07;3.15;;;5.80;75.60;;;;;;5048572;28;20040;-39
2021/04/22 03:55:10;;;;;;;14.07;3.90;;;5.70;75.70;;;;;;5030802;28;20088;-38
2021/04/22 03:57:39;;;;;;;14.77;3.67;;;5.80;75.90;;;;;;5032524;28;20046;-37
2021/04/22 04:00:08;;;;;;;12.52;3.35;;;5.80;75.70;;;;;;5033579;28;20049;-39
2021/04/22 04:02:34;;;;;;;16.08;3.63;;;5.80;76.00;;;;;;5044119;28;20056;-39
2021/04/22 04:05:04;;;;;;;14.98;3.35;;;5.80;75.70;;;;;;5038855;28;20124;-39
2021/04/22 04:07:30;;;;;;;15.75;3.60;;;5.80;76.10;;;;;;5033852;28;20155;-38
2021/04/22 04:09:56;;;;;;;15.98;3.53;;;5.80;75.50;;;;;;5030099;28;20488;-39
2021/04/22 04:12:24;;;;;;;12.65;3.47;;;5.80;75.70;;;;;;5034584;28;20473;-38
2021/04/22 04:14:51;;;;;;;15.40;3.60;;;5.80;75.70;;;;;;5035116;28;20041;-39
2021/04/22 04:17:17;;;;;;;12.73;3.08;;;5.80;75.60;;;;;;5033392;28;20045;-39
2021/04/22 04:19:43;;;;;;;17.25;3.67;;;5.80;75.70;;;;;;5040944;28;20045;-38
2021/04/22 04:22:13;;;;;;;14.73;3.33;;;5.80;75.70;;;;;;5034028;28;20049;-38
2021/04/22 04:24:39;;;;;;;15.48;3.60;;;5.80;76.10;;;;;;5035180;28;20063;-39
2021/04/22 04:27:06;;;;;;;12.75;3.15;;;5.80;75.90;;;;;;5038931;28;20119;-41
2021/04/22 04:29:32;;;;;;;13.82;4.30;;;5.80;76.20;;;;;;5037288;28;20121;-38
2021/04/22 04:32:00;;;;;;;12.07;3.58;;;5.80;76.00;;;;;;5031917;28;20057;-38
2021/04/22 04:34:27;;;;;;;13.82;3.38;;;5.80;76.30;;;;;;5037082;28;20041;-38
2021/04/22 04:36:55;;;;;;;15.05;3.67;;;5.80;76.40;;;;;;5037649;28;20052;-39
2021/04/22 04:39:21;;;;;;;17.70;4.68;;;5.80;76.10;;;;;;5026592;28;20413;-39
2021/04/22 04:41:48;;;;;;;14.88;4.30;;;5.90;75.90;;;;;;5032599;28;20571;-38
2021/04/22 04:44:14;;;;;;;15.70;3.95;;;5.90;76.20;;;;;;5037608;28;20049;-39
2021/04/22 04:46:41;;;;;;;15.70;3.60;;;5.90;75.80;;;;;;5033484;28;20049;-38
2021/04/22 04:49:07;;;;;;;12.27;3.53;;;5.90;75.90;;;;;;5039935;28;20698;-39
2021/04/22 04:51:35;;;;;;;13.05;3.55;;;6.00;75.80;;;;;;5038431;28;20045;-39
2021/04/22 04:54:02;;;;;;;15.38;3.40;;;6.00;75.10;;;;;;5033815;28;20045;-39
2021/04/22 04:56:32;;;;;;;15.27;4.40;;;6.00;75.00;;;;;;5044380;28;20062;-38
2021/04/22 04:58:58;;;;;;;13.15;3.92;;;6.10;75.00;;;;;;5041442;28;20524;-39
2021/04/22 05:01:27;;;;;;;17.98;3.85;;;6.10;75.40;;;;;;5041637;28;20056;-38
2021/04/22 05:03:53;;;;;;;12.77;3.70;;;6.20;74.40;;;;;;5029725;28;20187;-38
2021/04/22 05:06:19;;;;;;;18.73;3.83;;;6.20;75.10;;;;;;5040803;28;20048;-39
2021/04/22 05:08:45;;;;;;;16.85;3.58;;;6.20;74.00;;;;;;5034448;28;20077;-38
2021/04/22 05:11:11;;;;;;;14.70;3.67;;;6.50;73.70;;;;;;5012250;28;20049;-38
2021/04/22 05:13:40;;;;;;;18.80;4.18;;;6.50;73.50;;;;;;5036669;28;20052;-37
2021/04/22 05:16:08;;;;;;;13.13;3.33;;;6.60;73.30;;;;;;5018103;28;20045;-38
2021/04/22 05:18:34;;;;;;;18.23;4.50;;;6.70;72.90;;;;;;5038310;28;20049;-38
2021/04/22 05:21:01;;;;;;;16.10;4.88;;;6.80;72.50;;;;;;5030587;28;20055;-38
2021/04/22 05:23:27;;;;;;;15.02;4.10;;;6.70;72.50;;;;;;5037729;28;20068;-38
2021/04/22 05:25:54;;;;;;;22.58;4.65;;;6.70;72.40;;;;;;5035392;28;20499;-37
2021/04/22 05:28:24;;;;;;;17.58;4.03;;;6.70;72.50;;;;;;5037995;28;20053;-38
2021/04/22 05:30:51;;;;;;;16.70;4.40;;;6.80;72.50;;;;;;5034729;28;20041;-37
2021/04/22 05:33:17;;;;;;;13.07;4.30;;;6.80;71.90;;;;;;5029863;28;20305;-37
2021/04/22 05:35:45;;;;;;;14.50;3.63;;;6.80;71.90;;;;;;5039356;28;20049;-37
2021/04/22 05:38:12;;;;;;;14.20;3.53;;;6.80;71.20;;;;;;5030186;28;20053;-38
2021/04/22 05:40:39;;;;;;;13.57;3.83;;;7.00;70.80;;;;;;5028815;28;20604;-39
2021/04/22 05:43:07;;;;;;;18.40;3.65;;;7.00;70.20;;;;;;5044171;28;20049;-38
2021/04/22 05:45:38;;;;;;;14.98;3.72;;;7.00;68.90;;;;;;5043674;28;20065;-38
2021/04/22 05:48:06;;;;;;;9.55;3.38;;;7.00;68.50;;;;;;5038628;28;20051;-38
2021/04/22 05:50:32;;;;;;;17.20;3.85;;;7.20;69.00;;;;;;5040408;28;20045;-38
2021/04/22 05:52:58;;;;;;;161.77;101.38;;;7.30;68.20;;;;;;5035216;28;20411;-39
2021/04/22 05:55:24;;;;;;;72.55;47.13;;;7.30;67.70;;;;;;5032919;28;20041;-39
2021/04/22 05:57:55;;;;;;;43.15;26.55;;;7.50;67.90;;;;;;5035300;28;20045;-40
2021/04/22 06:00:22;;;;;;;19.50;6.75;;;7.60;67.80;;;;;;5026219;28;20056;-41
2021/04/22 06:02:48;;;;;;;22.25;5.43;;;7.60;66.30;;;;;;5024624;28;20180;-40
2021/04/22 06:05:16;;;;;;;11.98;3.67;;;7.60;66.30;;;;;;5013689;28;20053;-41
2021/04/22 06:07:42;;;;;;;17.83;7.22;;;7.60;66.70;;;;;;5024304;28;20045;-40
2021/04/22 06:10:09;;;;;;;14.75;3.88;;;7.60;66.70;;;;;;5016061;28;20045;-41
2021/04/22 06:12:36;;;;;;;172.95;128.20;;;7.50;66.90;;;;;;5029929;28;20390;-40
2021/04/22 06:15:08;;;;;;;24.60;8.95;;;7.60;67.70;;;;;;5025206;28;20049;-40
2021/04/22 06:17:34;;;;;;;17.55;4.65;;;7.70;67.20;;;;;;5022937;28;20053;-41
2021/04/22 06:20:00;;;;;;;18.75;5.53;;;7.60;66.70;;;;;;5026087;28;20549;-40
2021/04/22 06:22:33;;;;;;;19.83;5.15;;;7.70;67.00;;;;;;5027543;28;20198;-40
2021/04/22 06:24:59;;;;;;;17.73;4.35;;;7.80;66.10;;;;;;5023553;28;20132;-40
2021/04/22 06:27:37;;;;;;;14.05;3.70;;;7.80;66.80;;;;;;5007598;28;20073;-40
2021/04/22 06:30:04;;;;;;;15.43;3.58;;;7.80;64.40;;;;;;5011572;28;20049;-40
2021/04/22 06:32:31;;;;;;;39.58;24.10;;;7.80;65.90;;;;;;5009681;28;20050;-39
2021/04/22 06:34:57;;;;;;;76.07;54.38;;;8.20;68.20;;;;;;5020119;28;20063;-40
2021/04/22 06:37:24;;;;;;;35.50;19.88;;;8.30;65.50;;;;;;5016285;28;20041;-40
2021/04/22 06:39:59;;;;;;;24.17;10.70;;;8.20;64.10;;;;;;5008504;28;20065;-40
2021/04/22 06:42:26;;;;;;;32.30;17.40;;;8.30;64.30;;;;;;5024524;28;20045;-41
2021/04/22 06:44:55;;;;;;;18.67;5.22;;;8.50;64.60;;;;;;5015744;28;20631;-42
2021/04/22 06:47:21;;;;;;;12.82;4.18;;;8.60;62.20;;;;;;5020824;28;20101;-42
2021/04/22 06:49:49;;;;;;;17.15;4.95;;;8.40;61.40;;;;;;5024390;28;20053;-40
2021/04/22 06:52:17;;;;;;;83.07;56.40;;;8.50;61.10;;;;;;5020536;28;20049;-40
2021/04/22 06:54:43;;;;;;;39.78;26.48;;;8.80;63.30;;;;;;5014869;28;20091;-41
2021/04/22 06:57:10;;;;;;;23.90;12.48;;;8.90;63.00;;;;;;5013281;28;20041;-41
2021/04/22 06:59:37;;;;;;;23.33;11.57;;;8.90;61.90;;;;;;5019031;28;20046;-41
2021/04/22 07:02:03;;;;;;;32.95;18.80;;;9.00;61.00;;;;;;5005339;28;20065;-41
2021/04/22 07:04:29;;;;;;;12.77;4.38;;;9.20;60.90;;;;;;5004483;28;20108;-42
2021/04/22 07:06:57;;;;;;;16.67;6.30;;;9.10;59.30;;;;;;5028077;28;20052;-41
2021/04/22 07:09:25;;;;;;;14.35;4.38;;;8.90;58.90;;;;;;5022181;28;20054;-42
2021/04/22 07:11:52;;;;;;;17.90;4.15;;;8.80;59.60;;;;;;5039953;28;20139;-42
2021/04/22 07:14:20;;;;;;;19.02;4.82;;;8.90;59.80;;;;;;5015754;28;20452;-41
2021/04/22 07:16:52;;;;;;;23.90;12.20;;;8.70;60.10;;;;;;5018942;28;20529;-40
2021/04/22 07:19:21;;;;;;;24.05;14.43;;;8.80;61.20;;;;;;5017761;28;20512;-40
2021/04/22 07:21:50;;;;;;;10.88;3.97;;;8.80;61.30;;;;;;5025456;28;20450;-40
2021/04/22 07:24:31;;;;;;;19.77;6.95;;;8.60;60.20;;;;;;5022003;28;20052;-41
2021/04/22 07:27:20;;;;;;;12.65;3.88;;;8.50;59.70;;;;;;5003430;28;20050;-40
2021/04/22 07:29:47;;;;;;;12.43;4.90;;;8.70;61.20;;;;;;4986229;28;20046;-40
2021/04/22 07:32:19;;;;;;;14.70;3.53;;;8.60;60.70;;;;;;4995857;28;20050;-41
2021/04/22 07:34:48;;;;;;;23.48;4.40;;;8.80;60.20;;;;;;5017991;28;20049;-40
2021/04/22 07:37:17;;;;;;;20.83;4.22;;;8.80;60.50;;;;;;5012042;28;20061;-41
2021/04/22 07:39:45;;;;;;;20.02;4.72;;;8.90;60.10;;;;;;5005309;28;20154;-41
2021/04/22 07:42:12;;;;;;;13.65;3.70;;;9.10;61.30;;;;;;5018239;28;20136;-41
2021/04/22 07:44:39;;;;;;;18.95;4.13;;;9.10;61.10;;;;;;5026380;28;20073;-40
2021/04/22 07:47:08;;;;;;;16.13;4.43;;;9.20;60.80;;;;;;5022866;28;20037;-41
2021/04/22 07:49:35;;;;;;;17.90;4.70;;;9.10;60.50;;;;;;5028294;28;20051;-41
2021/04/22 07:52:02;;;;;;;15.73;3.83;;;9.00;60.40;;;;;;5024100;28;20046;-41
2021/04/22 07:54:28;;;;;;;24.23;4.75;;;9.10;60.00;;;;;;5022734;28;20050;-40
2021/04/22 07:56:55;;;;;;;12.38;4.03;;;9.20;60.30;;;;;;5021196;28;20069;-42
2021/04/22 07:59:24;;;;;;;12.57;3.35;;;9.00;60.10;;;;;;5012453;28;20053;-43
2021/04/22 08:01:50;;;;;;;21.80;7.05;;;8.90;60.80;;;;;;5012330;28;20080;-43
2021/04/22 08:04:19;;;;;;;11.95;3.53;;;8.70;62.00;;;;;;5020774;28;20042;-43
2021/04/22 08:06:48;;;;;;;10.80;3.45;;;8.80;62.70;;;;;;5014059;28;20045;-43
2021/04/22 08:09:14;;;;;;;11.48;3.20;;;8.80;61.80;;;;;;5025408;28;20049;-44
2021/04/22 08:11:41;;;;;;;18.02;5.65;;;8.90;61.00;;;;;;5006265;28;20072;-42
2021/04/22 08:14:07;;;;;;;27.45;4.55;;;9.10;61.30;;;;;;5020939;28;20049;-43
2021/04/22 08:16:34;;;;;;;11.57;3.05;;;9.00;60.10;;;;;;5012630;28;20124;-42
2021/04/22 08:19:04;;;;;;;16.38;3.85;;;9.20;61.60;;;;;;5015156;28;20416;-42
2021/04/22 08:21:31;;;;;;;12.65;3.65;;;9.10;60.70;;;;;;5024999;28;20049;-41
2021/04/22 08:23:57;;;;;;;15.23;3.38;;;9.10;61.60;;;;;;5015613;28;20046;-42
2021/04/22 08:26:24;;;;;;;12.10;3.20;;;9.40;61.50;;;;;;5027016;28;20092;-40
2021/04/22 08:28:50;;;;;;;12.30;3.80;;;9.50;59.00;;;;;;5028396;28;20053;-41
2021/04/22 08:31:24;;;;;;;14.85;3.60;;;9.60;60.20;;;;;;5027308;28;20055;-40
2021/04/22 08:33:57;;;;;;;11.68;4.20;;;9.80;58.30;;;;;;5026341;28;20111;-42
2021/04/22 08:36:25;;;;;;;14.32;2.90;;;9.70;58.70;;;;;;5026950;28;20056;-42
2021/04/22 08:38:52;;;;;;;14.98;3.17;;;9.70;59.00;;;;;;5033095;28;20045;-42
2021/04/22 08:41:23;;;;;;;15.95;4.88;;;9.70;58.50;;;;;;5036901;28;20057;-42
2021/04/22 08:43:49;;;;;;;14.38;3.80;;;9.90;59.40;;;;;;5035555;28;20218;-41
2021/04/22 08:46:20;;;;;;;64.80;48.47;;;10.00;58.70;;;;;;5037273;28;20053;-38
2021/04/22 08:48:48;;;;;;;22.77;5.10;;;11.10;60.30;;;;;;5042698;28;20045;-39
2021/04/22 08:51:15;;;;;;;12.43;3.17;;;10.80;57.00;;;;;;5033177;28;20056;-42
2021/04/22 08:53:45;;;;;;;16.10;4.18;;;10.30;57.90;;;;;;5041339;28;20045;-42
2021/04/22 08:56:12;;;;;;;10.52;3.25;;;10.10;59.30;;;;;;5036616;28;20543;-42
2021/04/22 08:58:38;;;;;;;12.55;4.53;;;9.70;60.30;;;;;;5046335;28;20049;-41
2021/04/22 09:01:11;;;;;;;38.55;7.90;;;9.90;61.00;;;;;;5036692;28;20057;-43
2021/04/22 09:03:42;;;;;;;41.10;10.07;;;10.00;61.60;;;;;;5034836;28;20044;-43
2021/04/22 09:06:10;;;;;;;19.55;5.03;;;10.40;61.50;;;;;;5045744;28;20045;-43
2021/04/22 09:08:44;;;;;;;25.35;5.80;;;10.80;59.00;;;;;;5037023;28;20828;-44
2021/04/22 09:11:12;;;;;;;8.50;3.17;;;11.70;57.20;;;;;;5028725;28;20045;-42
2021/04/22 09:13:39;;;;;;;23.25;3.60;;;12.30;53.80;;;;;;5046650;28;20052;-42
2021/04/22 09:16:09;;;;;;;48.95;27.65;;;13.10;55.90;;;;;;5039164;28;20563;-40
2021/04/22 09:18:43;;;;;;;22.17;13.35;;;14.90;51.60;;;;;;5041877;28;20056;-39
2021/04/22 09:21:40;;;;;;;22.20;3.55;;;13.90;50.20;;;;;;5026979;28;20489;-39
2021/04/22 09:24:15;;;;;;;9.02;4.45;;;12.70;51.30;;;;;;5033159;28;20131;-38
2021/04/22 09:26:44;;;;;;;24.88;4.35;;;12.20;53.10;;;;;;5047474;28;20052;-38
2021/04/22 09:29:35;;;;;;;14.75;4.50;;;12.50;52.90;;;;;;5028868;28;20049;-37
2021/04/22 09:32:32;;;;;;;8.40;3.10;;;12.80;50.20;;;;;;5037739;28;20068;-37
2021/04/22 09:35:08;;;;;;;17.55;4.10;;;11.40;50.50;;;;;;5030153;28;20049;-37
2021/04/22 09:37:45;;;;;;;17.13;3.03;;;10.80;53.10;;;;;;5029787;28;20045;-38
2021/04/22 09:40:19;;;;;;;484.83;59.13;;;10.90;55.20;;;;;;5034609;28;20088;-38
2021/04/22 09:42:49;;;;;;;26.77;14.25;;;10.80;55.00;;;;;;5025805;28;20452;-37
2021/04/22 09:45:23;;;;;;;21.65;3.50;;;11.00;56.50;;;;;;5042374;28;20136;-37
2021/04/22 09:47:53;;;;;;;8.45;3.47;;;11.90;50.70;;;;;;5044508;28;20052;-37
2021/04/22 09:50:25;;;;;;;31.88;21.52;;;11.70;52.60;;;;;;5036480;28;20056;-37
2021/04/22 09:52:55;;;;;;;;;;;13.00;53.20;;;;;;5049784;28;20056;-37
2021/04/22 09:55:31;;;;;;;28.42;18.05;;;13.80;53.40;;;;;;5044308;28;19975;-38
2021/04/22 09:58:04;;;;;;;25.00;15.95;;;13.90;49.90;;;;;;5008752;28;20041;-37
2021/04/22 10:00:37;;;;;;;55.42;10.05;;;14.00;48.90;;;;;;5047618;28;20057;-38
2021/04/22 10:03:10;;;;;;;12.20;3.58;;;13.70;48.90;;;;;;5042801;28;20041;-40
2021/04/22 10:05:42;;;;;;;12.77;3.17;;;12.30;49.70;;;;;;5036075;28;20053;-39
2021/04/22 10:08:10;;;;;;;9.93;2.58;;;11.70;51.10;;;;;;5040606;28;20501;-38
2021/04/22 10:11:03;;;;;;;9.70;3.38;;;11.60;51.30;;;;;;5033582;28;20079;-40
2021/04/22 10:13:46;;;;;;;10.55;2.55;;;11.60;53.90;;;;;;5025470;28;20054;-39
2021/04/22 10:16:15;;;;;;;11.70;3.30;;;11.40;54.40;;;;;;5033910;28;20045;-39
2021/04/22 10:18:48;;;;;;;13.68;2.97;;;10.90;54.40;;;;;;5032826;28;20076;-40
2021/04/22 10:21:21;;;;;;;14.48;3.38;;;10.80;55.40;;;;;;5005329;28;20059;-40
2021/04/22 10:23:51;;;;;;;10.65;3.08;;;10.60;58.50;;;;;;5011825;28;20440;-39
2021/04/22 10:26:22;;;;;;;9.77;3.10;;;10.50;60.20;;;;;;5028674;28;20057;-42
2021/04/22 10:29:10;;;;;;;9.48;3.20;;;10.70;58.50;;;;;;5014133;28;20072;-37
2021/04/22 10:31:38;;;;;;;24.08;3.90;;;11.50;56.30;;;;;;5032137;28;20051;-37
2021/04/22 10:34:08;;;;;;;7.03;2.58;;;11.60;53.60;;;;;;5030741;28;20043;-37
2021/04/22 10:36:38;;;;;;;9.35;2.72;;;12.20;53.90;;;;;;5035279;28;20661;-37
2021/04/22 10:39:05;;;;;;;8.10;2.40;;;13.00;51.40;;;;;;5026963;28;20065;-39
2021/04/22 10:41:34;;;;;;;9.48;2.30;;;13.70;50.50;;;;;;5040814;28;20692;-38
2021/04/22 10:44:01;;;;;;;19.00;11.98;;;13.80;47.50;;;;;;5047375;28;20049;-38
2021/04/22 10:46:29;;;;;;;11.60;4.70;;;13.40;48.80;;;;;;5046824;28;20041;-38
2021/04/22 10:49:01;;;;;;;14.73;8.95;;;13.10;51.30;;;;;;5046469;28;20059;-38
2021/04/22 10:51:29;;;;;;;10.95;3.80;;;12.90;50.80;;;;;;5053798;28;20448;-39
2021/04/22 10:53:55;;;;;;;10.68;3.50;;;12.40;49.70;;;;;;5047713;28;20056;-40
2021/04/22 10:56:29;;;;;;;7.60;2.17;;;13.00;50.30;;;;;;5043803;28;20060;-39
2021/04/22 10:58:57;;;;;;;9.32;2.45;;;13.20;48.80;;;;;;5039818;28;20131;-39
2021/04/22 11:01:40;;;;;;;8.07;2.90;;;12.60;48.50;;;;;;5044480;28;20052;-38
2021/04/22 11:04:09;;;;;;;14.80;3.15;;;12.50;49.70;;;;;;5040325;28;20073;-38
2021/04/22 11:06:47;;;;;;;13.02;3.13;;;12.20;49.50;;;;;;5048363;28;20044;-39
2021/04/22 11:09:21;;;;;;;25.83;7.25;;;13.40;50.80;;;;;;5045199;28;20053;-39
2021/04/22 11:12:01;;;;;;;20.95;3.83;;;13.80;48.80;;;;;;5036866;28;20503;-39
2021/04/22 11:14:39;;;;;;;23.85;10.70;;;12.90;49.20;;;;;;5035929;28;20049;-39
2021/04/22 11:17:07;;;;;;;271.67;22.42;;;12.80;50.90;;;;;;5043230;28;20045;-39
2021/04/22 11:19:36;;;;;;;15.60;3.10;;;12.60;50.50;;;;;;5035800;28;20159;-40
2021/04/22 11:22:15;;;;;;;47.50;6.80;;;12.80;49.10;;;;;;5019349;28;20184;-39
2021/04/22 11:25:04;;;;;;;14.15;3.53;;;13.30;50.30;;;;;;5025611;28;20791;-39
2021/04/22 11:27:47;;;;;;;15.20;4.38;;;13.70;47.00;;;;;;5028283;28;20045;-40
2021/04/22 11:30:27;;;;;;;12.60;4.78;;;14.10;49.00;;;;;;5025518;28;20041;-38
2021/04/22 11:32:56;;;;;;;31.67;9.10;;;14.20;44.20;;;;;;5043452;28;20049;-39
2021/04/22 11:35:27;;;;;;;21.02;3.85;;;13.90;47.50;;;;;;5049949;28;20075;-40
2021/04/22 11:37:56;;;;;;;11.95;3.33;;;13.50;47.60;;;;;;5029679;28;20134;-39
2021/04/22 11:40:38;;;;;;;9.93;2.90;;;13.30;46.80;;;;;;5041740;28;20049;-37
2021/04/22 11:43:19;;;;;;;9.75;2.83;;;13.20;45.70;;;;;;5048717;28;20073;-38
2021/04/22 11:45:51;;;;;;;25.40;5.68;;;13.70;46.60;;;;;;5031565;28;20103;-39
2021/04/22 11:48:24;;;;;;;9.27;2.80;;;13.40;46.10;;;;;;5030232;28;20049;-39
2021/04/22 11:50:57;;;;;;;12.82;5.93;;;13.50;44.40;;;;;;5043877;28;20422;-41
2021/04/22 11:53:39;;;;;;;10.25;3.35;;;14.90;45.20;;;;;;5050519;28;20652;-40
2021/04/22 11:56:07;;;;;;;26.20;6.40;;;14.70;41.60;;;;;;5053383;28;20041;-40
2021/04/22 11:58:34;;;;;;;9.40;2.80;;;14.00;43.20;;;;;;5046363;28;20060;-40
2021/04/22 12:01:09;;;;;;;12.13;2.65;;;13.50;43.40;;;;;;5046710;28;20049;-40
2021/04/22 12:03:41;;;;;;;23.92;7.22;;;13.60;45.40;;;;;;5044558;28;20060;-39
2021/04/22 12:06:13;;;;;;;15.20;7.32;;;12.90;46.10;;;;;;5045338;28;20049;-38
2021/04/22 12:08:45;;;;;;;29.90;9.65;;;12.90;47.50;;;;;;5044626;28;20087;-40
2021/04/22 12:11:19;;;;;;;25.85;9.73;;;12.30;47.00;;;;;;5044683;28;20037;-41
2021/04/22 12:13:47;;;;;;;21.95;11.07;;;12.80;48.40;;;;;;5052022;28;20056;-39
2021/04/22 12:16:17;;;;;;;10.68;3.83;;;12.90;47.90;;;;;;5039814;28;20048;-40
2021/04/22 12:18:47;;;;;;;13.32;2.80;;;13.70;46.80;;;;;;5044160;28;20071;-39
2021/04/22 12:21:23;;;;;;;20.20;3.80;;;13.70;46.30;;;;;;5044852;28;20185;-40
2021/04/22 12:23:52;;;;;;;20.05;10.27;;;14.10;44.80;;;;;;5050561;28;20063;-41
2021/04/22 12:26:23;;;;;;;26.13;12.20;;;13.90;45.80;;;;;;5045847;28;20049;-40
2021/04/22 12:28:58;;;;;;;17.23;8.13;;;13.40;44.90;;;;;;5013678;28;20103;-40
2021/04/22 12:31:30;;;;;;;14.88;3.25;;;13.80;47.30;;;;;;5036033;28;20049;-40
2021/04/22 12:34:09;;;;;;;14.77;3.67;;;13.60;46.40;;;;;;5021091;28;20046;-40
2021/04/22 12:36:41;;;;;;;15.45;3.83;;;12.90;48.00;;;;;;5036527;28;20052;-41
2021/04/22 12:39:07;;;;;;;9.57;2.97;;;12.60;49.20;;;;;;5031492;28;20049;-39
2021/04/22 12:41:34;;;;;;;11.43;2.90;;;12.70;49.70;;;;;;5022621;28;20084;-40
2021/04/22 12:44:02;;;;;;;9.27;3.20;;;13.10;50.30;;;;;;5012748;28;20049;-40
2021/04/22 12:46:31;;;;;;;13.75;4.00;;;13.20;51.20;;;;;;5012730;28;20104;-40
2021/04/22 12:49:12;;;;;;;16.13;3.95;;;13.60;48.20;;;;;;5011515;28;20081;-40
2021/04/22 12:51:39;;;;;;;11.38;2.60;;;13.40;47.90;;;;;;5027668;28;20593;-39
2021/04/22 12:54:06;;;;;;;11.13;3.55;;;14.90;46.70;;;;;;5022823;28;20033;-40